Time;durP1;ratioP1;P1;durP2;ratioP2;P2;SDS_P1;SDS_P2;PMS_P1;PMS_P2;Temp;Humidity;BMP_temperature;BMP_pressure;BME280_temperature;BME280_humidity;BME280_pressure;Samples;Min_cycle;Max_cycle;Signal;HPM_P1;HPM_P2
2022/11/25 00:01:48;;;;;;;41.30;26.70;;;6.00;99.90;;;;;;5077851;28;20930;-68
2022/11/25 00:04:15;;;;;;;43.00;26.83;;;5.90;99.90;;;;;;5078154;28;20467;-66
2022/11/25 00:06:43;;;;;;;42.20;26.30;;;5.90;99.90;;;;;;5079103;28;20504;-66
2022/11/25 00:09:12;;;;;;;49.60;30.27;;;5.90;99.90;;;;;;5077919;28;20553;-66
2022/11/25 00:11:40;;;;;;;46.73;27.53;;;5.90;99.90;;;;;;5078045;28;20454;-66
2022/11/25 00:14:10;;;;;;;42.50;27.60;;;5.90;99.90;;;;;;5077380;28;20451;-67
2022/11/25 00:16:37;;;;;;;45.00;26.77;;;5.80;99.90;;;;;;5077017;28;20553;-67
2022/11/25 00:19:04;;;;;;;43.47;25.80;;;5.70;99.90;;;;;;5076848;28;20565;-67
2022/11/25 00:21:33;;;;;;;38.10;23.63;;;5.70;99.90;;;;;;5077225;28;20817;-66
2022/11/25 00:24:03;;;;;;;41.13;27.10;;;5.70;99.90;;;;;;5076465;28;20541;-66
2022/11/25 00:26:33;;;;;;;41.33;25.60;;;5.70;99.90;;;;;;5077527;28;20458;-66
2022/11/25 00:29:02;;;;;;;38.67;24.83;;;5.70;99.90;;;;;;5078594;28;20483;-67
2022/11/25 00:31:31;;;;;;;44.73;25.60;;;5.70;99.90;;;;;;5078374;28;20549;-66
2022/11/25 00:33:58;;;;;;;38.10;24.60;;;5.60;99.90;;;;;;5076705;28;20553;-67
2022/11/25 00:36:27;;;;;;;42.50;26.97;;;5.60;99.90;;;;;;5077677;28;20546;-67
2022/11/25 00:38:55;;;;;;;43.70;25.83;;;5.60;99.90;;;;;;5076613;28;20491;-66
2022/11/25 00:46:53;;;;;;;49.27;27.57;;;5.40;99.90;;;;;;5076726;28;20431;-66
2022/11/25 00:49:20;;;;;;;41.73;25.30;;;5.30;99.90;;;;;;5076811;28;20541;-66
2022/11/25 00:51:47;;;;;;;45.97;25.60;;;5.40;99.90;;;;;;5076818;28;20815;-67
2022/11/25 00:54:15;;;;;;;40.17;27.20;;;5.40;99.90;;;;;;5076650;28;20555;-66
2022/11/25 00:56:42;;;;;;;45.33;26.23;;;5.40;99.90;;;;;;5077152;28;20548;-67
2022/11/25 00:59:10;;;;;;;47.13;26.70;;;5.40;99.90;;;;;;5076265;28;20978;-67
2022/11/25 01:01:37;;;;;;;48.73;27.30;;;5.40;99.90;;;;;;5076197;28;20497;-66
2022/11/25 01:04:05;;;;;;;45.73;26.27;;;5.40;99.90;;;;;;5076419;28;20537;-67
2022/11/25 01:06:32;;;;;;;44.30;27.00;;;5.40;99.90;;;;;;5076479;28;20519;-67
2022/11/25 01:08:59;;;;;;;47.50;25.90;;;5.40;99.90;;;;;;5076285;28;20541;-67
2022/11/25 01:11:26;;;;;;;49.90;27.03;;;5.30;99.90;;;;;;5075944;28;20525;-68
2022/11/25 01:13:55;;;;;;;45.93;25.70;;;5.40;99.90;;;;;;5076315;28;20549;-67
2022/11/25 01:16:23;;;;;;;45.27;26.00;;;5.30;99.90;;;;;;5076445;28;20464;-67
2022/11/25 01:18:51;;;;;;;45.43;26.73;;;5.40;99.90;;;;;;5076179;28;20546;-65
2022/11/25 01:21:20;;;;;;;45.07;26.40;;;5.30;99.90;;;;;;5075493;28;20573;-65
2022/11/25 01:23:48;;;;;;;41.23;25.27;;;5.40;99.90;;;;;;5076132;28;20501;-66
2022/11/25 01:26:17;;;;;;;47.00;28.30;;;5.40;99.90;;;;;;5075852;28;20454;-66
2022/11/25 01:28:44;;;;;;;44.77;27.37;;;5.50;99.90;;;;;;5075587;28;21001;-66
2022/11/25 01:31:13;;;;;;;47.40;27.70;;;5.50;99.90;;;;;;5075827;28;20537;-66
2022/11/25 01:33:43;;;;;;;45.60;25.80;;;5.50;99.90;;;;;;5075933;28;20485;-66
2022/11/25 01:36:12;;;;;;;45.63;27.33;;;5.60;99.90;;;;;;5076231;28;20494;-69
2022/11/25 01:38:39;;;;;;;48.83;28.60;;;5.60;99.90;;;;;;5076640;28;20562;-67
2022/11/25 01:41:08;;;;;;;41.00;25.83;;;5.60;99.90;;;;;;5075973;28;20474;-66
2022/11/25 01:43:35;;;;;;;41.10;24.33;;;5.60;99.90;;;;;;5075688;28;20851;-67
2022/11/25 01:46:08;;;;;;;44.97;26.20;;;5.60;99.90;;;;;;5075690;28;20537;-66
2022/11/25 01:48:42;;;;;;;42.43;26.07;;;5.60;99.90;;;;;;5075460;28;20453;-65
2022/11/25 01:51:20;;;;;;;39.87;25.13;;;5.60;99.90;;;;;;5075409;28;20438;-65
2022/11/25 01:53:47;;;;;;;42.03;25.80;;;5.60;99.90;;;;;;5075402;28;20533;-66
2022/11/25 01:56:15;;;;;;;46.37;25.83;;;5.60;99.90;;;;;;5075233;28;20800;-66
2022/11/25 01:58:43;;;;;;;38.77;24.90;;;5.60;99.90;;;;;;5075308;28;20545;-66
2022/11/25 02:01:10;;;;;;;50.83;28.93;;;5.60;99.90;;;;;;5075412;28;20573;-67
2022/11/25 02:03:41;;;;;;;48.60;27.80;;;5.60;99.90;;;;;;5075723;28;20454;-67
2022/11/25 02:06:16;;;;;;;39.27;25.60;;;5.70;99.90;;;;;;5075648;28;20485;-67
2022/11/25 02:08:48;;;;;;;43.20;24.97;;;5.70;99.90;;;;;;5076841;28;20464;-66
2022/11/25 02:11:16;;;;;;;40.43;25.10;;;5.80;99.90;;;;;;5077036;28;20826;-66
2022/11/25 02:13:45;;;;;;;43.07;24.00;;;5.80;99.90;;;;;;5076686;28;20545;-67
2022/11/25 02:16:12;;;;;;;44.37;26.50;;;5.80;99.90;;;;;;5075569;28;20516;-66
2022/11/25 02:18:39;;;;;;;36.30;24.60;;;5.80;99.90;;;;;;5075286;28;20536;-66
2022/11/25 02:21:07;;;;;;;44.23;26.57;;;5.80;99.90;;;;;;5075247;28;20486;-67
2022/11/25 02:23:42;;;;;;;38.70;24.37;;;5.90;99.90;;;;;;5075081;28;20459;-66
2022/11/25 02:26:10;;;;;;;41.43;24.67;;;5.90;99.90;;;;;;5075529;28;20438;-66
2022/11/25 02:28:38;;;;;;;39.47;22.53;;;5.90;99.90;;;;;;5075181;28;20458;-66
2022/11/25 02:31:06;;;;;;;37.90;25.57;;;6.00;99.90;;;;;;5074904;28;20545;-67
2022/11/25 02:33:33;;;;;;;33.30;21.53;;;6.00;99.90;;;;;;5074968;28;20998;-67
2022/11/25 02:36:03;;;;;;;41.27;24.30;;;6.00;99.90;;;;;;5075109;28;20785;-67
2022/11/25 02:38:36;;;;;;;42.00;25.20;;;6.00;99.90;;;;;;5075316;28;20455;-67
2022/11/25 02:41:07;;;;;;;38.53;23.50;;;6.00;99.90;;;;;;5075466;28;20553;-67
2022/11/25 02:43:36;;;;;;;43.43;25.03;;;6.00;99.90;;;;;;5078370;28;20481;-67
2022/11/25 02:46:05;;;;;;;38.57;24.50;;;6.00;99.90;;;;;;5077348;28;20501;-66
2022/11/25 02:48:35;;;;;;;37.77;24.20;;;5.90;99.90;;;;;;5080996;28;20458;-65
2022/11/25 02:51:02;;;;;;;41.17;24.87;;;5.90;99.90;;;;;;5081829;28;20454;-67
2022/11/25 02:53:29;;;;;;;43.77;26.10;;;5.90;99.90;;;;;;5081486;28;20453;-67
2022/11/25 02:55:56;;;;;;;37.40;23.13;;;5.90;99.90;;;;;;5081160;28;21001;-67
2022/11/25 02:58:23;;;;;;;39.93;22.93;;;5.80;99.90;;;;;;5081365;28;20454;-67
2022/11/25 03:00:52;;;;;;;42.83;24.70;;;5.70;99.90;;;;;;5081059;28;20477;-67
2022/11/25 03:03:19;;;;;;;41.10;24.37;;;5.70;99.90;;;;;;5080922;28;20468;-67
2022/11/25 03:05:45;;;;;;;46.27;26.70;;;5.60;99.90;;;;;;5081256;28;20460;-67
2022/11/25 03:08:12;;;;;;;39.70;24.23;;;5.60;99.90;;;;;;5081298;28;20464;-66
2022/11/25 03:10:40;;;;;;;42.10;23.87;;;5.50;99.90;;;;;;5081087;28;20541;-65
2022/11/25 03:13:08;;;;;;;41.40;23.70;;;5.50;99.90;;;;;;5081227;28;20536;-67
2022/11/25 03:15:36;;;;;;;40.53;24.27;;;5.40;99.90;;;;;;5081091;28;20489;-67
2022/11/25 03:18:05;;;;;;;44.27;24.87;;;5.40;99.90;;;;;;5080934;28;20537;-66
2022/11/25 03:20:32;;;;;;;42.37;25.63;;;5.50;99.90;;;;;;5081143;28;20511;-65
2022/11/25 03:22:59;;;;;;;45.43;24.97;;;5.40;99.90;;;;;;5082034;28;20458;-68
2022/11/25 03:25:26;;;;;;;45.10;26.03;;;5.40;99.90;;;;;;5082635;28;20489;-66
2022/11/25 03:27:53;;;;;;;43.73;24.50;;;5.40;99.90;;;;;;5081387;28;20541;-65
2022/11/25 03:30:22;;;;;;;45.63;25.33;;;5.50;99.90;;;;;;5081067;28;20820;-67
2022/11/25 03:32:49;;;;;;;44.10;25.80;;;5.50;99.90;;;;;;5080776;28;20541;-67
2022/11/25 03:35:18;;;;;;;44.20;24.13;;;5.60;99.90;;;;;;5080545;28;20553;-65
2022/11/25 03:37:46;;;;;;;37.57;23.37;;;5.60;99.90;;;;;;5080630;28;20446;-66
2022/11/25 03:40:15;;;;;;;40.27;25.20;;;5.70;99.90;;;;;;5080652;28;20481;-66
2022/11/25 03:42:42;;;;;;;38.30;23.13;;;5.70;99.90;;;;;;5080826;28;20851;-66
2022/11/25 03:45:12;;;;;;;36.37;23.30;;;5.70;99.90;;;;;;5080810;28;20462;-67
2022/11/25 03:47:40;;;;;;;33.23;21.20;;;5.80;99.90;;;;;;5080684;28;20476;-67
2022/11/25 03:50:08;;;;;;;45.17;23.80;;;5.90;99.90;;;;;;5080750;28;20537;-66
2022/11/25 03:52:37;;;;;;;41.13;22.60;;;5.90;99.90;;;;;;5080516;28;20502;-65
2022/11/25 03:55:05;;;;;;;31.50;22.10;;;5.90;99.90;;;;;;5080396;28;20544;-67
2022/11/25 03:57:32;;;;;;;31.27;21.40;;;5.90;99.90;;;;;;5080840;28;20651;-66
2022/11/25 03:59:59;;;;;;;35.83;22.00;;;5.90;99.90;;;;;;5076595;28;20534;-66
2022/11/25 04:02:26;;;;;;;37.40;22.77;;;6.00;99.90;;;;;;5077657;28;20557;-67
2022/11/25 04:04:53;;;;;;;39.53;22.60;;;6.00;99.90;;;;;;5077155;28;20949;-67
2022/11/25 04:07:19;;;;;;;40.20;22.90;;;6.00;99.90;;;;;;5077126;28;20974;-67
2022/11/25 04:09:48;;;;;;;35.23;21.67;;;6.10;99.90;;;;;;5077578;28;20833;-67
2022/11/25 04:14:59;;;;;;;32.93;20.50;;;6.10;99.90;;;;;;5077188;28;20425;-67
2022/11/25 04:17:26;;;;;;;35.50;21.20;;;6.20;99.90;;;;;;5077998;28;20470;-67
2022/11/25 04:19:53;;;;;;;37.83;21.53;;;6.20;99.90;;;;;;5077436;28;21025;-66
2022/11/25 04:22:19;;;;;;;38.97;22.50;;;6.20;99.90;;;;;;5078580;28;20557;-67
2022/11/25 04:24:48;;;;;;;32.60;21.40;;;6.30;99.90;;;;;;5077739;28;20550;-66
2022/11/25 04:27:14;;;;;;;36.40;22.43;;;6.30;99.90;;;;;;5077561;28;20839;-67
2022/11/25 04:29:41;;;;;;;35.27;21.73;;;6.30;99.90;;;;;;5077169;28;20486;-68
2022/11/25 04:32:08;;;;;;;34.43;21.60;;;6.30;99.90;;;;;;5077025;28;20454;-66
2022/11/25 04:34:35;;;;;;;35.20;22.67;;;6.30;99.90;;;;;;5077176;28;20541;-66
2022/11/25 04:37:02;;;;;;;34.13;21.80;;;6.30;99.90;;;;;;5077099;28;20523;-67
2022/11/25 04:39:29;;;;;;;35.13;21.47;;;6.30;99.90;;;;;;5077112;28;20472;-67
2022/11/25 04:44:38;;;;;;;41.10;22.10;;;6.20;99.90;;;;;;5076645;28;20454;-67
2022/11/25 04:47:05;;;;;;;36.20;21.80;;;6.20;99.90;;;;;;5076688;28;20530;-67
2022/11/25 04:49:32;;;;;;;31.53;22.20;;;6.20;99.90;;;;;;5076661;28;20846;-67
2022/11/25 04:51:58;;;;;;;30.53;20.30;;;6.20;99.90;;;;;;5076550;28;20482;-67
2022/11/25 04:54:25;;;;;;;36.43;22.10;;;6.20;99.90;;;;;;5076182;28;20458;-67
2022/11/25 04:56:52;;;;;;;36.10;22.37;;;6.30;99.90;;;;;;5076586;28;20450;-66
2022/11/25 05:02:05;;;;;;;36.00;21.27;;;6.40;99.90;;;;;;5076234;28;20470;-66
2022/11/25 05:04:32;;;;;;;31.23;19.93;;;6.40;99.90;;;;;;5076071;28;20548;-66
2022/11/25 05:06:59;;;;;;;40.07;21.07;;;6.40;99.90;;;;;;5076756;28;20454;-66
2022/11/25 05:09:26;;;;;;;32.33;20.70;;;6.40;99.90;;;;;;5076655;28;20541;-65
2022/11/25 05:11:52;;;;;;;35.23;21.83;;;6.40;99.90;;;;;;5076211;28;20537;-67
2022/11/25 05:14:21;;;;;;;32.90;22.00;;;6.40;99.90;;;;;;5076137;28;20454;-67
2022/11/25 05:16:48;;;;;;;34.73;21.33;;;6.50;99.90;;;;;;5075827;28;20557;-67
2022/11/25 05:19:15;;;;;;;34.80;23.13;;;6.50;99.90;;;;;;5075752;28;20473;-66
2022/11/25 05:21:42;;;;;;;37.47;22.80;;;6.50;99.90;;;;;;5075644;28;20969;-66
2022/11/25 05:24:09;;;;;;;38.80;22.47;;;6.60;99.90;;;;;;5075629;28;20494;-67
2022/11/25 05:26:36;;;;;;;34.53;21.90;;;6.60;99.90;;;;;;5075765;28;20464;-67
2022/11/25 05:29:03;;;;;;;33.53;23.23;;;6.60;99.90;;;;;;5075810;28;20541;-66
2022/11/25 05:31:31;;;;;;;40.27;22.43;;;6.60;99.90;;;;;;5075751;28;20734;-66
2022/11/25 05:34:00;;;;;;;38.30;22.20;;;6.60;99.90;;;;;;5081956;28;20830;-67
2022/11/25 05:36:27;;;;;;;37.73;21.70;;;6.60;99.90;;;;;;5082303;28;20489;-67
2022/11/25 05:38:57;;;;;;;44.33;23.37;;;6.60;99.90;;;;;;5082243;28;20450;-68
2022/11/25 05:41:24;;;;;;;40.20;23.10;;;6.50;99.90;;;;;;5082205;28;20826;-66
2022/11/25 05:43:52;;;;;;;40.27;22.13;;;6.40;99.90;;;;;;5082142;28;20556;-67
2022/11/25 05:46:19;;;;;;;42.60;23.67;;;6.40;99.90;;;;;;5083190;28;20785;-67
2022/11/25 05:48:47;;;;;;;42.20;23.90;;;6.40;99.90;;;;;;5081900;28;20553;-67
2022/11/25 05:51:14;;;;;;;40.40;25.83;;;6.30;99.90;;;;;;5081787;28;20533;-67
2022/11/25 05:53:41;;;;;;;41.40;23.07;;;6.30;99.90;;;;;;5082152;28;20462;-68
2022/11/25 05:56:09;;;;;;;38.77;22.27;;;6.30;99.90;;;;;;5082148;28;20505;-67
2022/11/25 05:58:36;;;;;;;47.60;25.97;;;6.30;99.90;;;;;;5081363;28;20540;-68
2022/11/25 06:01:07;;;;;;;45.50;24.03;;;6.30;99.90;;;;;;5081592;28;20520;-68
2022/11/25 06:03:34;;;;;;;49.87;23.80;;;6.30;99.90;;;;;;5081288;28;20446;-67
2022/11/25 06:06:03;;;;;;;40.40;23.90;;;6.30;99.90;;;;;;5081555;28;20517;-67
2022/11/25 06:08:30;;;;;;;56.10;28.77;;;6.30;99.90;;;;;;5081676;28;20509;-67
2022/11/25 06:10:57;;;;;;;45.50;26.60;;;6.30;99.90;;;;;;5081739;28;20474;-68
2022/11/25 06:13:24;;;;;;;39.70;24.67;;;6.30;99.90;;;;;;5082252;28;20454;-68
2022/11/25 06:15:51;;;;;;;38.60;22.47;;;6.30;99.90;;;;;;5081373;28;20492;-67
2022/11/25 06:18:18;;;;;;;37.03;23.53;;;6.30;99.90;;;;;;5081246;28;20482;-68
2022/11/25 06:20:46;;;;;;;34.77;22.60;;;6.30;99.90;;;;;;5082445;28;20955;-68
2022/11/25 06:23:14;;;;;;;34.07;23.07;;;6.30;99.90;;;;;;5081853;28;20939;-68
2022/11/25 06:25:41;;;;;;;41.73;25.87;;;6.20;99.90;;;;;;5081918;28;20781;-68
2022/11/25 06:28:08;;;;;;;36.47;23.70;;;6.20;99.90;;;;;;5082180;28;20458;-67
2022/11/25 06:30:34;;;;;;;34.07;22.57;;;6.10;99.90;;;;;;5082431;28;20497;-67
2022/11/25 06:33:01;;;;;;;36.30;22.23;;;6.10;99.90;;;;;;5083003;28;20507;-67
2022/11/25 06:35:28;;;;;;;34.60;22.80;;;6.00;99.90;;;;;;5082129;28;20450;-68
2022/11/25 06:37:55;;;;;;;40.50;24.13;;;6.00;99.90;;;;;;5082852;28;20501;-68
2022/11/25 06:40:23;;;;;;;41.03;24.27;;;5.90;99.90;;;;;;5083408;28;20478;-67
2022/11/25 06:42:50;;;;;;;40.47;22.93;;;5.90;99.90;;;;;;5082376;28;20554;-67
2022/11/25 06:45:17;;;;;;;39.30;23.30;;;5.90;99.90;;;;;;5081598;28;20497;-67
2022/11/25 06:47:44;;;;;;;41.20;24.43;;;5.80;99.90;;;;;;5080853;28;20454;-67
2022/11/25 06:50:11;;;;;;;40.33;23.50;;;5.70;99.90;;;;;;5080941;28;20497;-68
2022/11/25 06:53:34;;;;;;;40.13;23.50;;;5.70;99.90;;;;;;5082148;28;20506;-70
2022/11/25 06:56:12;;;;;;;42.40;23.87;;;5.60;99.90;;;;;;5075005;28;20946;-67
2022/11/25 06:58:40;;;;;;;48.33;28.13;;;5.60;99.90;;;;;;5080721;28;20507;-68
2022/11/25 07:01:11;;;;;;;45.37;25.70;;;5.60;99.90;;;;;;5081331;28;20536;-68
2022/11/25 07:03:38;;;;;;;48.93;25.60;;;5.60;99.90;;;;;;5081052;28;20484;-67
2022/11/25 07:06:05;;;;;;;50.50;26.07;;;5.50;99.90;;;;;;5080336;28;20453;-67
2022/11/25 07:08:32;;;;;;;53.33;26.70;;;5.60;99.90;;;;;;5080688;28;20482;-67
2022/11/25 07:11:03;;;;;;;50.47;25.00;;;5.70;99.90;;;;;;5080749;28;20973;-67
2022/11/25 07:13:32;;;;;;;50.10;26.20;;;5.90;99.90;;;;;;5081651;28;20443;-67
2022/11/25 07:16:01;;;;;;;55.13;27.47;;;6.00;99.90;;;;;;5081713;28;20957;-68
2022/11/25 07:18:30;;;;;;;58.37;28.13;;;6.20;99.90;;;;;;5081576;28;20454;-67
2022/11/25 07:21:03;;;;;;;61.43;30.03;;;6.20;99.90;;;;;;5079434;28;20584;-67
2022/11/25 07:23:30;;;;;;;61.23;30.07;;;6.20;99.90;;;;;;5077384;28;20449;-67
2022/11/25 07:26:01;;;;;;;54.13;28.20;;;6.20;99.90;;;;;;5078423;28;20450;-68
2022/11/25 07:28:28;;;;;;;72.07;31.00;;;6.10;99.90;;;;;;5080538;28;20445;-68
2022/11/25 07:31:03;;;;;;;64.63;31.63;;;6.00;99.90;;;;;;5081447;28;21009;-68
2022/11/25 07:33:30;;;;;;;72.90;33.63;;;5.90;99.90;;;;;;5083143;28;20462;-68
2022/11/25 07:36:00;;;;;;;64.07;30.87;;;5.80;99.90;;;;;;5085329;28;20450;-67
2022/11/25 07:38:28;;;;;;;59.93;29.53;;;5.80;99.90;;;;;;5083767;28;20438;-66
2022/11/25 07:40:54;;;;;;;67.57;29.83;;;5.70;99.90;;;;;;5085055;28;20481;-66
2022/11/25 07:43:21;;;;;;;79.37;35.47;;;5.60;99.90;;;;;;5084110;28;20497;-67
2022/11/25 07:45:48;;;;;;;76.90;32.17;;;5.60;99.90;;;;;;5085104;28;20926;-68
2022/11/25 07:48:16;;;;;;;70.07;29.47;;;5.60;99.90;;;;;;5084503;28;20834;-69
2022/11/25 07:50:44;;;;;;;76.97;31.60;;;5.60;99.90;;;;;;5085230;28;20857;-67
2022/11/25 07:53:11;;;;;;;78.00;30.30;;;5.60;99.90;;;;;;5084497;28;20473;-69
2022/11/25 07:55:38;;;;;;;78.53;32.70;;;5.80;99.90;;;;;;5084117;28;20530;-67
2022/11/25 07:58:05;;;;;;;75.60;31.97;;;5.90;99.90;;;;;;5084861;28;20497;-68
2022/11/25 08:00:32;;;;;;;53.93;27.40;;;6.00;99.90;;;;;;5083820;28;20454;-67
2022/11/25 08:02:59;;;;;;;62.10;29.33;;;6.10;99.90;;;;;;5082890;28;20505;-67
2022/11/25 08:05:27;;;;;;;63.47;31.50;;;6.10;99.90;;;;;;5082241;28;20475;-68
2022/11/25 08:07:54;;;;;;;49.90;27.30;;;6.30;99.90;;;;;;5082905;28;20553;-68
2022/11/25 08:10:20;;;;;;;61.37;28.13;;;6.30;99.90;;;;;;5083857;28;20536;-67
2022/11/25 08:12:47;;;;;;;54.90;27.67;;;6.40;99.90;;;;;;5084161;28;20516;-68
2022/11/25 08:15:14;;;;;;;46.13;25.50;;;6.50;99.90;;;;;;5084435;28;20556;-68
2022/11/25 08:17:41;;;;;;;57.87;26.70;;;6.50;99.90;;;;;;5083694;28;20482;-68
2022/11/25 08:20:09;;;;;;;52.70;26.33;;;6.60;99.90;;;;;;5082974;28;20592;-67
2022/11/25 08:22:37;;;;;;;53.03;26.23;;;6.60;99.90;;;;;;5081804;28;20681;-67
2022/11/25 08:25:04;;;;;;;52.67;26.87;;;6.60;99.90;;;;;;5081097;28;20542;-68
2022/11/25 08:27:31;;;;;;;51.40;23.23;;;6.60;99.90;;;;;;5080702;28;20486;-66
2022/11/25 08:29:58;;;;;;;49.10;24.07;;;6.50;99.90;;;;;;5080845;28;20540;-66
2022/11/25 08:32:24;;;;;;;49.50;24.97;;;6.50;99.90;;;;;;5080646;28;20490;-68
2022/11/25 08:34:51;;;;;;;51.90;25.20;;;6.50;99.90;;;;;;5083520;28;20481;-68
2022/11/25 08:37:18;;;;;;;48.60;24.53;;;6.50;99.90;;;;;;5083171;28;20484;-67
2022/11/25 08:39:49;;;;;;;42.70;22.53;;;6.50;99.90;;;;;;5081789;28;20493;-68
2022/11/25 08:42:16;;;;;;;47.97;24.80;;;6.40;99.90;;;;;;5081811;28;20462;-69
2022/11/25 08:44:43;;;;;;;38.63;21.73;;;6.30;99.90;;;;;;5081554;28;20477;-68
2022/11/25 08:47:10;;;;;;;46.50;23.77;;;6.30;99.90;;;;;;5082027;28;20966;-67
2022/11/25 08:49:36;;;;;;;49.57;25.90;;;6.30;99.90;;;;;;5081443;28;20549;-66
2022/11/25 08:52:03;;;;;;;45.43;22.83;;;6.30;99.90;;;;;;5081384;28;20474;-68
2022/11/25 08:54:30;;;;;;;48.40;22.47;;;6.40;99.90;;;;;;5082414;28;20535;-68
2022/11/25 08:56:59;;;;;;;40.20;21.00;;;6.40;99.90;;;;;;5082828;28;20986;-68
2022/11/25 08:59:26;;;;;;;46.97;22.90;;;6.40;99.90;;;;;;5082098;28;20458;-68
2022/11/25 09:01:54;;;;;;;43.03;21.80;;;6.40;99.90;;;;;;5081973;28;21045;-68
2022/11/25 09:04:21;;;;;;;42.07;21.80;;;6.50;99.90;;;;;;5081265;28;20459;-68
2022/11/25 09:06:47;;;;;;;38.90;21.73;;;6.50;99.90;;;;;;5080488;28;20489;-68
2022/11/25 09:09:14;;;;;;;39.67;22.77;;;6.40;99.90;;;;;;5080523;28;20486;-67
2022/11/25 09:11:42;;;;;;;42.20;21.03;;;6.40;99.90;;;;;;5079839;28;20459;-69
2022/11/25 09:14:10;;;;;;;43.27;22.17;;;6.50;99.90;;;;;;5079702;28;20466;-68
2022/11/25 09:16:37;;;;;;;44.83;21.97;;;6.50;99.90;;;;;;5080311;28;20609;-67
2022/11/25 09:19:05;;;;;;;44.33;23.70;;;6.50;99.90;;;;;;5080367;28;20831;-69
2022/11/25 09:21:32;;;;;;;48.70;23.20;;;6.50;99.90;;;;;;5080386;28;20477;-70
2022/11/25 09:23:59;;;;;;;51.00;24.77;;;6.50;99.90;;;;;;5080436;28;20450;-68
2022/11/25 09:26:28;;;;;;;40.67;22.17;;;6.60;99.90;;;;;;5082712;28;20454;-66
2022/11/25 09:28:55;;;;;;;42.83;21.10;;;6.60;99.90;;;;;;5081838;28;20545;-67
2022/11/25 09:31:24;;;;;;;51.77;26.97;;;6.70;99.90;;;;;;5081396;28;20945;-68
2022/11/25 09:33:51;;;;;;;40.27;21.93;;;6.80;99.90;;;;;;5080039;28;20818;-70
2022/11/25 09:36:19;;;;;;;51.67;23.53;;;6.90;99.90;;;;;;5080755;28;20509;-68
2022/11/25 09:38:47;;;;;;;46.47;24.77;;;7.00;99.90;;;;;;5079697;28;20541;-68
2022/11/25 09:47:18;;;;;;;36.70;21.50;;;7.00;99.90;;;;;;5079612;28;20450;-69
2022/11/25 09:49:57;;;;;;;45.73;22.10;;;7.00;99.90;;;;;;5079418;28;20430;-68
2022/11/25 09:52:35;;;;;;;37.80;22.17;;;7.00;99.90;;;;;;5080415;28;20446;-67
2022/11/25 09:55:09;;;;;;;39.37;21.77;;;7.00;99.90;;;;;;5079426;28;20439;-69
2022/11/25 09:57:50;;;;;;;35.50;20.90;;;7.10;99.90;;;;;;5078967;28;20508;-68
2022/11/25 10:00:19;;;;;;;40.63;22.30;;;7.20;99.90;;;;;;5080501;28;20438;-66
2022/11/25 10:02:58;;;;;;;42.57;21.80;;;7.20;99.90;;;;;;5080547;28;20962;-69
2022/11/25 10:05:27;;;;;;;43.40;22.77;;;7.30;99.90;;;;;;5080850;28;20493;-70
2022/11/25 10:07:58;;;;;;;39.60;21.13;;;7.30;99.90;;;;;;5080886;28;20454;-68
2022/11/25 10:10:29;;;;;;;41.77;21.47;;;7.40;99.90;;;;;;5081379;28;20470;-69
2022/11/25 10:12:58;;;;;;;37.50;20.20;;;7.40;99.90;;;;;;5081589;28;20526;-70
2022/11/25 10:15:29;;;;;;;40.40;21.80;;;7.40;99.90;;;;;;5081819;28;20548;-68
2022/11/25 10:18:00;;;;;;;40.67;22.50;;;7.40;99.90;;;;;;5081736;28;21007;-68
2022/11/25 10:20:31;;;;;;;34.47;21.17;;;7.50;99.90;;;;;;5081588;28;20594;-68
2022/11/25 10:23:03;;;;;;;33.67;19.50;;;7.60;99.90;;;;;;5081569;28;20463;-67
2022/11/25 10:25:33;;;;;;;36.20;20.83;;;7.60;99.90;;;;;;5081805;28;20508;-69
2022/11/25 10:28:02;;;;;;;33.70;20.50;;;7.70;99.90;;;;;;5080213;28;20760;-69
2022/11/25 10:30:39;;;;;;;35.60;21.13;;;7.80;99.90;;;;;;5079349;28;20458;-67
2022/11/25 10:33:14;;;;;;;37.87;23.33;;;7.90;99.90;;;;;;5079550;28;20476;-68
2022/11/25 10:35:46;;;;;;;34.70;21.13;;;8.00;99.90;;;;;;5079824;28;20442;-67
2022/11/25 10:38:19;;;;;;;33.63;20.97;;;8.10;99.90;;;;;;5080011;28;20481;-69
2022/11/25 10:40:49;;;;;;;36.20;22.37;;;8.20;99.90;;;;;;5078663;28;20519;-67
2022/11/25 10:43:16;;;;;;;38.90;22.30;;;8.20;99.90;;;;;;5079484;28;20510;-67
2022/11/25 10:45:49;;;;;;;37.10;23.20;;;8.20;99.90;;;;;;5079736;28;20523;-68
2022/11/25 10:48:31;;;;;;;41.97;22.27;;;8.20;99.90;;;;;;5080852;28;20434;-69
2022/11/25 10:51:09;;;;;;;40.57;23.83;;;8.30;99.90;;;;;;5080458;28;20511;-68
2022/11/25 10:53:37;;;;;;;41.10;23.77;;;8.30;99.90;;;;;;5080738;28;20896;-69
2022/11/25 10:56:10;;;;;;;51.30;23.23;;;8.30;99.90;;;;;;5080243;28;20458;-67
2022/11/25 10:58:38;;;;;;;42.03;23.27;;;8.30;99.90;;;;;;5080072;28;20481;-66
2022/11/25 11:01:17;;;;;;;39.90;23.20;;;8.30;99.90;;;;;;5079789;28;20966;-68
2022/11/25 11:03:50;;;;;;;42.50;24.33;;;8.50;99.90;;;;;;5080147;28;20462;-67
2022/11/25 11:06:30;;;;;;;34.90;24.67;;;8.60;99.90;;;;;;5080043;28;20482;-67
2022/11/25 11:08:58;;;;;;;41.30;23.37;;;8.70;99.90;;;;;;5081393;28;20449;-68
2022/11/25 11:11:25;;;;;;;39.70;24.70;;;8.70;99.90;;;;;;5083592;28;20525;-67
2022/11/25 11:14:00;;;;;;;42.73;26.17;;;8.50;99.90;;;;;;5083285;28;20478;-68
2022/11/25 11:16:35;;;;;;;51.00;24.50;;;8.40;99.90;;;;;;5081657;28;20438;-69
2022/11/25 11:19:05;;;;;;;42.27;26.40;;;8.40;99.90;;;;;;5082441;28;20461;-67
2022/11/25 11:21:34;;;;;;;42.87;27.40;;;8.30;99.90;;;;;;5082195;28;20545;-66
2022/11/25 11:24:04;;;;;;;48.90;27.37;;;8.30;99.90;;;;;;5080915;28;20521;-67
2022/11/25 11:26:32;;;;;;;48.20;26.57;;;8.20;99.90;;;;;;5081576;28;20850;-67
2022/11/25 11:29:04;;;;;;;43.33;26.80;;;8.40;99.90;;;;;;5084086;28;20490;-66
2022/11/25 11:31:34;;;;;;;37.90;24.93;;;8.60;99.90;;;;;;5083393;28;20481;-67
2022/11/25 11:34:18;;;;;;;37.97;23.03;;;8.70;99.90;;;;;;5083139;28;20478;-68
2022/11/25 11:37:02;;;;;;;34.83;22.67;;;8.60;99.90;;;;;;5083059;28;20533;-67
2022/11/25 11:39:53;;;;;;;36.63;23.17;;;8.50;99.90;;;;;;5082065;28;20516;-68
2022/11/25 11:42:30;;;;;;;41.73;23.60;;;8.30;99.90;;;;;;5079098;28;20466;-68
2022/11/25 11:45:12;;;;;;;39.07;24.13;;;8.30;99.90;;;;;;5082280;28;20465;-68
2022/11/25 11:47:49;;;;;;;37.63;24.97;;;8.40;99.90;;;;;;5082503;28;20456;-68
2022/11/25 11:50:32;;;;;;;33.73;22.90;;;8.60;99.90;;;;;;5082434;28;20474;-68
2022/11/25 11:53:10;;;;;;;35.93;21.77;;;9.20;99.90;;;;;;5082594;28;20470;-68
2022/11/25 11:55:50;;;;;;;31.40;20.80;;;10.30;99.90;;;;;;5082086;28;20445;-68
2022/11/25 11:58:28;;;;;;;27.73;18.70;;;11.70;99.90;;;;;;5081376;28;20474;-68
2022/11/25 12:01:04;;;;;;;31.90;19.97;;;12.80;99.90;;;;;;5081482;28;20831;-68
2022/11/25 12:03:38;;;;;;;27.53;19.67;;;13.40;99.90;;;;;;5080692;28;20876;-68
2022/11/25 12:06:09;;;;;;;26.40;19.97;;;14.30;99.90;;;;;;5078981;28;20518;-68
2022/11/25 12:08:47;;;;;;;24.77;18.20;;;15.50;99.90;;;;;;5079766;28;20537;-67
2022/11/25 12:11:20;;;;;;;21.60;17.17;;;16.00;99.90;;;;;;5079694;28;20493;-68
2022/11/25 12:13:53;;;;;;;26.97;19.30;;;16.50;99.90;;;;;;5080035;28;20506;-68
2022/11/25 12:16:27;;;;;;;24.20;18.40;;;16.50;99.90;;;;;;5080562;28;20529;-67
2022/11/25 12:18:56;;;;;;;23.00;18.37;;;16.60;99.90;;;;;;5079442;28;20895;-67
2022/11/25 12:21:43;;;;;;;23.63;17.60;;;16.60;99.90;;;;;;5078442;28;20561;-67
2022/11/25 12:24:17;;;;;;;27.77;20.60;;;16.40;99.90;;;;;;5081336;28;20498;-67
2022/11/25 12:26:52;;;;;;;39.13;22.73;;;15.80;99.90;;;;;;5080654;28;20529;-67
2022/11/25 12:29:28;;;;;;;25.93;18.77;;;15.40;99.90;;;;;;5080081;28;20466;-68
2022/11/25 12:32:09;;;;;;;25.67;19.57;;;14.80;99.90;;;;;;5080797;28;20442;-68
2022/11/25 12:34:43;;;;;;;26.60;19.53;;;14.10;99.90;;;;;;5081090;28;20523;-68
2022/11/25 12:37:17;;;;;;;33.80;20.50;;;13.60;99.90;;;;;;5080231;28;20485;-68
2022/11/25 12:39:52;;;;;;;28.10;19.83;;;13.20;99.90;;;;;;5081183;28;20485;-69
2022/11/25 12:42:24;;;;;;;26.70;20.60;;;12.90;99.90;;;;;;5081832;28;20473;-68
2022/11/25 12:44:59;;;;;;;27.67;19.37;;;12.60;99.90;;;;;;5082494;28;20552;-67
2022/11/25 12:47:27;;;;;;;26.77;19.97;;;12.20;99.90;;;;;;5082009;28;20821;-68
2022/11/25 12:49:56;;;;;;;29.83;20.20;;;11.90;99.90;;;;;;5081331;28;20490;-69
2022/11/25 12:52:43;;;;;;;30.43;21.53;;;11.60;99.90;;;;;;5080911;28;20921;-68
2022/11/25 12:55:14;;;;;;;22.93;18.13;;;11.40;99.90;;;;;;5080501;28;20485;-68
2022/11/25 12:58:18;;;;;;;25.83;20.00;;;11.20;99.90;;;;;;5081299;28;20458;-68
2022/11/25 13:01:20;;;;;;;31.33;21.83;;;11.00;99.90;;;;;;5082448;28;20453;-68
2022/11/25 13:04:29;;;;;;;33.10;22.47;;;10.70;99.90;;;;;;5081421;28;20502;-69
2022/11/25 13:07:23;;;;;;;30.10;21.10;;;10.20;99.90;;;;;;5080482;28;20488;-68
2022/11/25 13:10:16;;;;;;;29.90;19.70;;;9.80;99.90;;;;;;5081412;28;20542;-68